sensor_id;sensor_type;location;lat;lon;timestamp;pressure;altitude;pressure_sealevel;temperature;humidity
23619;BME280;18207;32.078;34.818;2023-03-26T00:00:31;100359.03;;;26.07;45.33
23619;BME280;18207;32.078;34.818;2023-03-26T00:03:01;100352.63;;;26.06;45.12
23619;BME280;18207;32.078;34.818;2023-03-26T00:05:32;100360.25;;;26.06;45.18
23619;BME280;18207;32.078;34.818;2023-03-26T00:08:02;100346.97;;;26.06;45.36
23619;BME280;18207;32.078;34.818;2023-03-26T00:10:36;100349.81;;;26.06;45.32
23619;BME280;18207;32.078;34.818;2023-03-26T00:13:08;100352.63;;;26.06;45.20
23619;BME280;18207;32.078;34.818;2023-03-26T00:15:40;100357.06;;;26.07;45.32
23619;BME280;18207;32.078;34.818;2023-03-26T00:18:10;100351.78;;;26.06;45.37
23619;BME280;18207;32.078;34.818;2023-03-26T00:20:40;100351.78;;;26.06;45.29
23619;BME280;18207;32.078;34.818;2023-03-26T00:23:12;100343.34;;;26.06;45.32
23619;BME280;18207;32.078;34.818;2023-03-26T00:25:43;100343.34;;;26.06;45.47
23619;BME280;18207;32.078;34.818;2023-03-26T00:28:18;100339.72;;;26.05;45.41
23619;BME280;18207;32.078;34.818;2023-03-26T00:30:58;100337.69;;;26.06;45.42
23619;BME280;18207;32.078;34.818;2023-03-26T00:33:29;100343.72;;;26.04;45.28
23619;BME280;18207;32.078;34.818;2023-03-26T00:36:00;100349.38;;;26.04;45.48
23619;BME280;18207;32.078;34.818;2023-03-26T00:38:31;100347.34;;;26.05;45.39
23619;BME280;18207;32.078;34.818;2023-03-26T00:41:08;100352.97;;;26.05;45.36
23619;BME280;18207;32.078;34.818;2023-03-26T00:43:45;100359.00;;;26.03;45.36
23619;BME280;18207;32.078;34.818;2023-03-26T00:46:18;100361.03;;;26.03;45.46
23619;BME280;18207;32.078;34.818;2023-03-26T00:48:49;100361.03;;;26.03;45.39
23619;BME280;18207;32.078;34.818;2023-03-26T00:51:20;100356.56;;;26.02;45.57
23619;BME280;18207;32.078;34.818;2023-03-26T00:53:51;100364.19;;;26.01;45.49
23619;BME280;18207;32.078;34.818;2023-03-26T00:56:21;100357.38;;;26.02;45.58
23619;BME280;18207;32.078;34.818;2023-03-26T00:58:52;100358.97;;;26.00;45.40
23619;BME280;18207;32.078;34.818;2023-03-26T01:01:26;100369.84;;;26.01;45.22
23619;BME280;18207;32.078;34.818;2023-03-26T01:04:27;100362.56;;;26.00;45.40
23619;BME280;18207;32.078;34.818;2023-03-26T01:07:02;100367.81;;;25.98;45.22
23619;BME280;18207;32.078;34.818;2023-03-26T01:09:38;100366.97;;;25.98;45.35
23619;BME280;18207;32.078;34.818;2023-03-26T01:12:15;100364.97;;;25.98;45.49
23619;BME280;18207;32.078;34.818;2023-03-26T01:14:48;100358.53;;;25.98;45.60
23619;BME280;18207;32.078;34.818;2023-03-26T01:17:22;100360.53;;;25.98;45.52
23619;BME280;18207;32.078;34.818;2023-03-26T01:20:00;100361.34;;;25.98;45.35
23619;BME280;18207;32.078;34.818;2023-03-26T01:22:45;100363.34;;;25.98;45.51
23619;BME280;18207;32.078;34.818;2023-03-26T01:25:21;100366.16;;;25.98;45.71
23619;BME280;18207;32.078;34.818;2023-03-26T01:27:54;100369.78;;;25.98;45.62
23619;BME280;18207;32.078;34.818;2023-03-26T01:30:32;100374.63;;;25.98;45.44
23619;BME280;18207;32.078;34.818;2023-03-26T01:33:14;100372.16;;;25.96;45.54
23619;BME280;18207;32.078;34.818;2023-03-26T01:35:56;100377.00;;;25.96;45.56
23619;BME280;18207;32.078;34.818;2023-03-26T01:38:36;100375.38;;;25.95;45.67
23619;BME280;18207;32.078;34.818;2023-03-26T01:41:24;100375.38;;;25.95;45.63
23619;BME280;18207;32.078;34.818;2023-03-26T01:44:05;100379.38;;;25.94;45.40
23619;BME280;18207;32.078;34.818;2023-03-26T01:46:38;100376.56;;;25.94;45.96
23619;BME280;18207;32.078;34.818;2023-03-26T01:49:09;100383.38;;;25.93;45.62
23619;BME280;18207;32.078;34.818;2023-03-26T01:51:42;100378.59;;;25.93;45.65
23619;BME280;18207;32.078;34.818;2023-03-26T01:54:17;100384.22;;;25.93;45.61
23619;BME280;18207;32.078;34.818;2023-03-26T01:57:04;100376.13;;;25.92;45.43
23619;BME280;18207;32.078;34.818;2023-03-26T02:03:00;100378.16;;;25.91;45.64
23619;BME280;18207;32.078;34.818;2023-03-26T02:05:37;100380.97;;;25.91;45.44
23619;BME280;18207;32.078;34.818;2023-03-26T02:08:18;100381.31;;;25.90;45.55
23619;BME280;18207;32.078;34.818;2023-03-26T02:10:57;100386.94;;;25.90;45.62
23619;BME280;18207;32.078;34.818;2023-03-26T02:13:31;100382.53;;;25.89;45.60
23619;BME280;18207;32.078;34.818;2023-03-26T02:16:04;100390.16;;;25.88;45.63
23619;BME280;18207;32.078;34.818;2023-03-26T02:18:35;100394.16;;;25.87;45.65
23619;BME280;18207;32.078;34.818;2023-03-26T02:21:09;100391.34;;;25.87;45.77
23619;BME280;18207;32.078;34.818;2023-03-26T02:23:43;100391.75;;;25.86;45.97
23619;BME280;18207;32.078;34.818;2023-03-26T02:26:17;100399.34;;;25.85;45.52
23619;BME280;18207;32.078;34.818;2023-03-26T02:28:50;100400.56;;;25.84;45.76
23619;BME280;18207;32.078;34.818;2023-03-26T02:31:21;100407.00;;;25.85;45.72
23619;BME280;18207;32.078;34.818;2023-03-26T02:33:53;100400.94;;;25.83;45.73
23619;BME280;18207;32.078;34.818;2023-03-26T02:36:24;100413.03;;;25.83;45.35
23619;BME280;18207;32.078;34.818;2023-03-26T02:38:56;100409.38;;;25.83;45.73
23619;BME280;18207;32.078;34.818;2023-03-26T02:41:27;100414.22;;;25.82;45.82
23619;BME280;18207;32.078;34.818;2023-03-26T02:43:59;100413.38;;;25.82;45.77
23619;BME280;18207;32.078;34.818;2023-03-26T02:46:29;100427.47;;;25.82;45.74
23619;BME280;18207;32.078;34.818;2023-03-26T02:48:59;100421.03;;;25.81;45.78
23619;BME280;18207;32.078;34.818;2023-03-26T02:51:29;100425.84;;;25.81;45.59
23619;BME280;18207;32.078;34.818;2023-03-26T02:54:02;100427.84;;;25.80;45.71
23619;BME280;18207;32.078;34.818;2023-03-26T02:56:34;100433.47;;;25.80;45.62
23619;BME280;18207;32.078;34.818;2023-03-26T02:59:06;100439.91;;;25.81;45.52
23619;BME280;18207;32.078;34.818;2023-03-26T03:01:36;100447.13;;;25.78;45.64
23619;BME280;18207;32.078;34.818;2023-03-26T03:04:13;100451.94;;;25.78;45.69
23619;BME280;18207;32.078;34.818;2023-03-26T03:06:45;100453.13;;;25.77;45.61
23619;BME280;18207;32.078;34.818;2023-03-26T03:09:19;100457.09;;;25.76;45.41
23619;BME280;18207;32.078;34.818;2023-03-26T03:11:50;100459.91;;;25.76;45.71
23619;BME280;18207;32.078;34.818;2023-03-26T03:14:23;100453.47;;;25.75;45.65
23619;BME280;18207;32.078;34.818;2023-03-26T03:16:53;100467.94;;;25.74;45.72
23619;BME280;18207;32.078;34.818;2023-03-26T03:19:24;100469.94;;;25.73;45.85
23619;BME280;18207;32.078;34.818;2023-03-26T03:21:54;100477.19;;;25.74;45.78
23619;BME280;18207;32.078;34.818;2023-03-26T03:24:24;100476.38;;;25.74;45.72
23619;BME280;18207;32.078;34.818;2023-03-26T03:26:55;100475.94;;;25.72;45.80
23619;BME280;18207;32.078;34.818;2023-03-26T03:29:29;100482.38;;;25.72;45.71
23619;BME280;18207;32.078;34.818;2023-03-26T03:31:59;100483.56;;;25.71;45.84
23619;BME280;18207;32.078;34.818;2023-03-26T03:34:29;100487.19;;;25.72;45.77
23619;BME280;18207;32.078;34.818;2023-03-26T03:36:59;100489.22;;;25.71;45.92
23619;BME280;18207;32.078;34.818;2023-03-26T03:39:29;100495.63;;;25.72;45.86
23619;BME280;18207;32.078;34.818;2023-03-26T03:42:00;100494.84;;;25.71;45.90
23619;BME280;18207;32.078;34.818;2023-03-26T03:44:32;100498.84;;;25.70;45.86
23619;BME280;18207;32.078;34.818;2023-03-26T03:47:03;100494.41;;;25.69;45.78
23619;BME280;18207;32.078;34.818;2023-03-26T03:49:33;100502.84;;;25.69;45.80
23619;BME280;18207;32.078;34.818;2023-03-26T03:52:04;100505.66;;;25.69;46.06
23619;BME280;18207;32.078;34.818;2023-03-26T03:54:41;100514.09;;;25.69;45.74
23619;BME280;18207;32.078;34.818;2023-03-26T03:57:12;100508.47;;;25.69;45.82
23619;BME280;18207;32.078;34.818;2023-03-26T03:59:44;100514.09;;;25.69;45.81
23619;BME280;18207;32.078;34.818;2023-03-26T04:02:15;100509.66;;;25.68;45.72
23619;BME280;18207;32.078;34.818;2023-03-26T04:04:53;100516.47;;;25.67;45.80
23619;BME280;18207;32.078;34.818;2023-03-26T04:07:25;100520.13;;;25.68;45.59
23619;BME280;18207;32.078;34.818;2023-03-26T04:09:58;100519.28;;;25.67;45.76
23619;BME280;18207;32.078;34.818;2023-03-26T04:12:30;100514.47;;;25.68;45.89
23619;BME280;18207;32.078;34.818;2023-03-26T04:15:03;100524.91;;;25.67;45.92
23619;BME280;18207;32.078;34.818;2023-03-26T04:17:34;100515.66;;;25.67;45.77
23619;BME280;18207;32.078;34.818;2023-03-26T04:20:11;100516.47;;;25.67;45.92
23619;BME280;18207;32.078;34.818;2023-03-26T04:22:42;100518.09;;;25.68;46.17
23619;BME280;18207;32.078;34.818;2023-03-26T04:25:14;100521.75;;;25.69;46.07
23619;BME280;18207;32.078;34.818;2023-03-26T04:27:46;100524.16;;;25.70;46.04
23619;BME280;18207;32.078;34.818;2023-03-26T04:30:20;100525.34;;;25.69;46.17
23619;BME280;18207;32.078;34.818;2023-03-26T04:32:54;100534.63;;;25.70;45.89
23619;BME280;18207;32.078;34.818;2023-03-26T04:35:25;100531.38;;;25.68;45.92
23619;BME280;18207;32.078;34.818;2023-03-26T04:37:57;100530.53;;;25.67;45.81
23619;BME280;18207;32.078;34.818;2023-03-26T04:40:27;100547.44;;;25.67;45.98
23619;BME280;18207;32.078;34.818;2023-03-26T04:42:58;100535.00;;;25.68;45.91
23619;BME280;18207;32.078;34.818;2023-03-26T04:45:31;100539.44;;;25.69;46.11
23619;BME280;18207;32.078;34.818;2023-03-26T04:48:01;100547.09;;;25.69;45.90
23619;BME280;18207;32.078;34.818;2023-03-26T04:50:34;100534.63;;;25.70;46.12
23619;BME280;18207;32.078;34.818;2023-03-26T04:53:04;100532.63;;;25.70;46.00
23619;BME280;18207;32.078;34.818;2023-03-26T04:55:44;100536.69;;;25.73;46.12
23619;BME280;18207;32.078;34.818;2023-03-26T04:58:17;100525.41;;;25.73;46.34
23619;BME280;18207;32.078;34.818;2023-03-26T05:00:48;100532.28;;;25.75;46.22
23619;BME280;18207;32.078;34.818;2023-03-26T05:03:18;100537.22;;;25.78;46.29
23619;BME280;18207;32.078;34.818;2023-03-26T05:05:49;100532.03;;;25.80;46.72
23619;BME280;18207;32.078;34.818;2023-03-26T05:08:20;100545.41;;;25.87;46.41
23619;BME280;18207;32.078;34.818;2023-03-26T05:10:50;100552.72;;;25.91;46.41
23619;BME280;18207;32.078;34.818;2023-03-26T05:13:21;100547.97;;;25.95;46.38
23619;BME280;18207;32.078;34.818;2023-03-26T05:15:53;100541.19;;;25.99;46.37
23619;BME280;18207;32.078;34.818;2023-03-26T05:18:23;100547.25;;;26.01;46.36
23619;BME280;18207;32.078;34.818;2023-03-26T05:20:54;100543.25;;;26.02;46.36
23619;BME280;18207;32.078;34.818;2023-03-26T05:23:24;100552.16;;;26.04;46.24
23619;BME280;18207;32.078;34.818;2023-03-26T05:25:55;100550.56;;;26.07;46.41
23619;BME280;18207;32.078;34.818;2023-03-26T05:28:26;100549.00;;;26.09;46.31
23619;BME280;18207;32.078;34.818;2023-03-26T05:30:58;100545.44;;;26.12;46.35
23619;BME280;18207;32.078;34.818;2023-03-26T05:33:29;100560.41;;;26.16;46.39
23619;BME280;18207;32.078;34.818;2023-03-26T05:36:01;100560.84;;;26.18;46.28
23619;BME280;18207;32.078;34.818;2023-03-26T05:38:33;100558.44;;;26.20;46.08
23619;BME280;18207;32.078;34.818;2023-03-26T05:41:05;100552.06;;;26.23;46.27
23619;BME280;18207;32.078;34.818;2023-03-26T05:43:35;100543.22;;;26.25;46.26
23619;BME280;18207;32.078;34.818;2023-03-26T05:46:09;100541.66;;;26.27;46.21
23619;BME280;18207;32.078;34.818;2023-03-26T05:48:39;100539.66;;;26.28;45.87
23619;BME280;18207;32.078;34.818;2023-03-26T05:51:09;100539.72;;;26.31;46.20
23619;BME280;18207;32.078;34.818;2023-03-26T05:53:40;100545.38;;;26.35;46.17
23619;BME280;18207;32.078;34.818;2023-03-26T05:56:10;100553.94;;;26.38;46.31
23619;BME280;18207;32.078;34.818;2023-03-26T05:58:41;100555.19;;;26.41;46.24
23619;BME280;18207;32.078;34.818;2023-03-26T06:01:13;100554.06;;;26.45;46.21
23619;BME280;18207;32.078;34.818;2023-03-26T06:03:45;100551.28;;;26.49;46.26
23619;BME280;18207;32.078;34.818;2023-03-26T06:06:18;100560.63;;;26.53;46.19
23619;BME280;18207;32.078;34.818;2023-03-26T06:08:50;100555.81;;;26.57;46.15
23619;BME280;18207;32.078;34.818;2023-03-26T06:11:30;100565.16;;;26.61;46.29
23619;BME280;18207;32.078;34.818;2023-03-26T06:14:01;100566.84;;;26.65;46.19
23619;BME280;18207;32.078;34.818;2023-03-26T06:16:33;100574.16;;;26.70;46.24
23619;BME280;18207;32.078;34.818;2023-03-26T06:19:04;100575.81;;;26.74;46.10
23619;BME280;18207;32.078;34.818;2023-03-26T06:21:34;100581.13;;;26.79;46.24
23619;BME280;18207;32.078;34.818;2023-03-26T06:24:05;100576.78;;;26.85;46.19
23619;BME280;18207;32.078;34.818;2023-03-26T06:26:36;100585.72;;;26.90;46.31
23619;BME280;18207;32.078;34.818;2023-03-26T06:29:06;100585.81;;;26.97;46.12
23619;BME280;18207;32.078;34.818;2023-03-26T06:31:39;100592.41;;;27.05;46.30
23619;BME280;18207;32.078;34.818;2023-03-26T06:34:10;100586.06;;;27.11;46.29
23619;BME280;18207;32.078;34.818;2023-03-26T06:36:40;100595.78;;;27.17;46.14
23619;BME280;18207;32.078;34.818;2023-03-26T06:39:10;100607.56;;;27.23;46.18
23619;BME280;18207;32.078;34.818;2023-03-26T06:41:41;100601.19;;;27.29;45.97
23619;BME280;18207;32.078;34.818;2023-03-26T06:44:11;100604.47;;;27.35;46.00
23619;BME280;18207;32.078;34.818;2023-03-26T06:46:43;100604.94;;;27.40;45.94
23619;BME280;18207;32.078;34.818;2023-03-26T06:49:14;100611.00;;;27.42;45.80
23619;BME280;18207;32.078;34.818;2023-03-26T06:51:44;100611.84;;;27.43;45.72
23619;BME280;18207;32.078;34.818;2023-03-26T06:54:14;100619.91;;;27.44;46.09
23619;BME280;18207;32.078;34.818;2023-03-26T06:56:44;100626.38;;;27.45;45.59
23619;BME280;18207;32.078;34.818;2023-03-26T06:59:14;100621.13;;;27.47;45.73
23619;BME280;18207;32.078;34.818;2023-03-26T07:01:47;100628.84;;;27.50;45.39
23619;BME280;18207;32.078;34.818;2023-03-26T07:04:17;100630.47;;;27.51;45.66
23619;BME280;18207;32.078;34.818;2023-03-26T07:06:48;100637.75;;;27.52;45.55
23619;BME280;18207;32.078;34.818;2023-03-26T07:09:18;100639.75;;;27.51;45.56
23619;BME280;18207;32.078;34.818;2023-03-26T07:11:49;100639.75;;;27.51;45.42
23619;BME280;18207;32.078;34.818;2023-03-26T07:14:19;100635.72;;;27.52;45.36
23619;BME280;18207;32.078;34.818;2023-03-26T07:16:52;100637.34;;;27.53;45.34
23619;BME280;18207;32.078;34.818;2023-03-26T07:19:23;100641.81;;;27.54;45.32
23619;BME280;18207;32.078;34.818;2023-03-26T07:21:54;100641.81;;;27.54;45.23
23619;BME280;18207;32.078;34.818;2023-03-26T07:24:25;100643.44;;;27.55;45.34
23619;BME280;18207;32.078;34.818;2023-03-26T07:27:02;100650.31;;;27.58;45.17
23619;BME280;18207;32.078;34.818;2023-03-26T07:29:41;100665.25;;;27.58;45.36
23619;BME280;18207;32.078;34.818;2023-03-26T07:32:26;100657.59;;;27.59;45.20
23619;BME280;18207;32.078;34.818;2023-03-26T07:35:06;100662.44;;;27.58;45.25
23619;BME280;18207;32.078;34.818;2023-03-26T07:37:55;100660.06;;;27.60;45.14
23619;BME280;18207;32.078;34.818;2023-03-26T07:40:47;100652.44;;;27.64;45.04
23619;BME280;18207;32.078;34.818;2023-03-26T07:43:40;100648.09;;;27.70;45.46
23619;BME280;18207;32.078;34.818;2023-03-26T07:46:14;100647.34;;;27.76;45.32
23619;BME280;18207;32.078;34.818;2023-03-26T07:48:49;100658.34;;;27.85;45.31
23619;BME280;18207;32.078;34.818;2023-03-26T07:51:22;100658.81;;;27.90;45.39
23619;BME280;18207;32.078;34.818;2023-03-26T07:53:53;100654.81;;;27.95;45.22
23619;BME280;18207;32.078;34.818;2023-03-26T07:56:33;100661.31;;;27.99;44.92
23619;BME280;18207;32.078;34.818;2023-03-26T07:59:18;100662.97;;;28.00;45.12
23619;BME280;18207;32.078;34.818;2023-03-26T08:02:22;100667.81;;;28.03;45.14
23619;BME280;18207;32.078;34.818;2023-03-26T08:05:14;100663.00;;;28.03;44.94
23619;BME280;18207;32.078;34.818;2023-03-26T08:08:02;100653.31;;;28.04;44.40
23619;BME280;18207;32.078;34.818;2023-03-26T08:10:45;100656.94;;;28.05;44.91
23619;BME280;18207;32.078;34.818;2023-03-26T08:13:26;100666.63;;;28.04;44.65
23619;BME280;18207;32.078;34.818;2023-03-26T08:16:06;100665.81;;;28.03;44.70
23619;BME280;18207;32.078;34.818;2023-03-26T08:18:47;100659.34;;;28.03;44.57
23619;BME280;18207;32.078;34.818;2023-03-26T08:21:27;100666.19;;;28.02;44.32
23619;BME280;18207;32.078;34.818;2023-03-26T08:24:09;100670.22;;;28.01;44.68
23619;BME280;18207;32.078;34.818;2023-03-26T08:26:51;100671.84;;;28.02;44.34
23619;BME280;18207;32.078;34.818;2023-03-26T08:29:32;100670.59;;;27.99;44.25
23619;BME280;18207;32.078;34.818;2023-03-26T08:32:13;100686.31;;;27.97;44.35
23619;BME280;18207;32.078;34.818;2023-03-26T08:34:44;100683.50;;;27.97;44.39
23619;BME280;18207;32.078;34.818;2023-03-26T08:37:17;100676.25;;;27.99;44.11
23619;BME280;18207;32.078;34.818;2023-03-26T08:39:47;100676.66;;;27.98;44.30
23619;BME280;18207;32.078;34.818;2023-03-26T08:43:01;100681.91;;;27.99;44.54
23619;BME280;18207;32.078;34.818;2023-03-26T08:55:43;100679.84;;;27.96;44.11
23619;BME280;18207;32.078;34.818;2023-03-26T08:58:58;100685.94;;;27.98;44.71
23619;BME280;18207;32.078;34.818;2023-03-26T09:02:42;100678.66;;;27.97;44.29
23619;BME280;18207;32.078;34.818;2023-03-26T09:06:01;100683.50;;;27.97;44.47
23619;BME280;18207;32.078;34.818;2023-03-26T09:09:10;100671.81;;;27.98;44.12
23619;BME280;18207;32.078;34.818;2023-03-26T09:15:38;100663.44;;;28.09;44.83
23619;BME280;18207;32.078;34.818;2023-03-26T09:22:19;100667.63;;;28.22;44.68
23619;BME280;18207;32.078;34.818;2023-03-26T09:25:22;100666.09;;;28.28;44.48
23619;BME280;18207;32.078;34.818;2023-03-26T09:32:05;100660.06;;;28.33;44.21
23619;BME280;18207;32.078;34.818;2023-03-26T09:35:08;100659.66;;;28.34;44.12
23619;BME280;18207;32.078;34.818;2023-03-26T09:37:58;100659.28;;;28.36;44.01
23619;BME280;18207;32.078;34.818;2023-03-26T09:40:52;100653.22;;;28.37;44.12
23619;BME280;18207;32.078;34.818;2023-03-26T09:47:08;100650.41;;;28.37;43.98
23619;BME280;18207;32.078;34.818;2023-03-26T09:49:53;100660.50;;;28.38;43.90
23619;BME280;18207;32.078;34.818;2023-03-26T09:52:56;100662.16;;;28.39;44.14
23619;BME280;18207;32.078;34.818;2023-03-26T09:56:02;100669.41;;;28.37;43.79
23619;BME280;18207;32.078;34.818;2023-03-26T10:02:29;100662.13;;;28.36;43.84
23619;BME280;18207;32.078;34.818;2023-03-26T10:05:34;100647.16;;;28.35;44.06
23619;BME280;18207;32.078;34.818;2023-03-26T10:08:49;100650.81;;;28.36;44.06
23619;BME280;18207;32.078;34.818;2023-03-26T10:11:42;100652.81;;;28.35;43.96
23619;BME280;18207;32.078;34.818;2023-03-26T10:14:24;100645.94;;;28.36;43.87
23619;BME280;18207;32.078;34.818;2023-03-26T10:17:18;100650.03;;;28.39;43.80
23619;BME280;18207;32.078;34.818;2023-03-26T10:23:16;100647.22;;;28.42;43.93
23619;BME280;18207;32.078;34.818;2023-03-26T10:26:10;100642.38;;;28.43;44.20
23619;BME280;18207;32.078;34.818;2023-03-26T10:29:33;100653.25;;;28.41;43.63
23619;BME280;18207;32.078;34.818;2023-03-26T10:32:22;100657.69;;;28.38;43.67
23619;BME280;18207;32.078;34.818;2023-03-26T10:35:11;100657.25;;;28.36;43.83
23619;BME280;18207;32.078;34.818;2023-03-26T10:38:13;100654.84;;;28.35;43.84
23619;BME280;18207;32.078;34.818;2023-03-26T10:40:58;100659.66;;;28.34;43.56
23619;BME280;18207;32.078;34.818;2023-03-26T10:44:08;100666.16;;;28.35;44.14
23619;BME280;18207;32.078;34.818;2023-03-26T10:47:10;100670.59;;;28.36;43.56
23619;BME280;18207;32.078;34.818;2023-03-26T10:52:56;100656.47;;;28.36;43.94
23619;BME280;18207;32.078;34.818;2023-03-26T10:55:35;100660.50;;;28.38;43.67
23619;BME280;18207;32.078;34.818;2023-03-26T10:58:17;100660.53;;;28.42;43.80
23619;BME280;18207;32.078;34.818;2023-03-26T11:00:56;100659.75;;;28.41;43.81
23619;BME280;18207;32.078;34.818;2023-03-26T11:03:45;100650.06;;;28.42;43.60
23619;BME280;18207;32.078;34.818;2023-03-26T11:06:30;100660.94;;;28.40;43.52
23619;BME280;18207;32.078;34.818;2023-03-26T11:09:18;100658.13;;;28.40;43.74
23619;BME280;18207;32.078;34.818;2023-03-26T11:11:59;100657.25;;;28.36;43.37
23619;BME280;18207;32.078;34.818;2023-03-26T11:15:00;100652.41;;;28.33;43.33
23619;BME280;18207;32.078;34.818;2023-03-26T11:17:46;100648.75;;;28.33;43.90
23619;BME280;18207;32.078;34.818;2023-03-26T11:20:31;100646.75;;;28.33;43.83
23619;BME280;18207;32.078;34.818;2023-03-26T11:23:22;100646.75;;;28.33;43.52
23619;BME280;18207;32.078;34.818;2023-03-26T11:26:13;100640.28;;;28.33;43.82
23619;BME280;18207;32.078;34.818;2023-03-26T11:29:17;100655.19;;;28.30;43.62
23619;BME280;18207;32.078;34.818;2023-03-26T11:32:06;100651.53;;;28.26;43.71
23619;BME280;18207;32.078;34.818;2023-03-26T11:34:43;100645.03;;;28.25;43.73
23619;BME280;18207;32.078;34.818;2023-03-26T11:37:26;100652.28;;;28.23;43.35
23619;BME280;18207;32.078;34.818;2023-03-26T11:40:05;100652.66;;;28.21;43.52
23619;BME280;18207;32.078;34.818;2023-03-26T11:42:41;100647.00;;;28.21;43.29
23619;BME280;18207;32.078;34.818;2023-03-26T11:45:18;100654.66;;;28.21;43.57
23619;BME280;18207;32.078;34.818;2023-03-26T11:47:55;100649.84;;;28.21;43.69
23619;BME280;18207;32.078;34.818;2023-03-26T11:50:31;100639.38;;;28.22;43.50
23619;BME280;18207;32.078;34.818;2023-03-26T11:53:12;100639.38;;;28.22;43.50
23619;BME280;18207;32.078;34.818;2023-03-26T11:55:52;100641.72;;;28.20;43.67
23619;BME280;18207;32.078;34.818;2023-03-26T11:58:32;100633.66;;;28.18;43.63
23619;BME280;18207;32.078;34.818;2023-03-26T12:01:12;100644.16;;;28.18;43.71
23619;BME280;18207;32.078;34.818;2023-03-26T12:03:55;100633.22;;;28.16;43.46
23619;BME280;18207;32.078;34.818;2023-03-26T12:06:26;100637.25;;;28.15;43.52
23619;BME280;18207;32.078;34.818;2023-03-26T12:08:58;100647.75;;;28.15;43.53
23619;BME280;18207;32.078;34.818;2023-03-26T12:11:31;100639.69;;;28.13;43.38
23619;BME280;18207;32.078;34.818;2023-03-26T12:14:04;100640.44;;;28.10;43.73
23619;BME280;18207;32.078;34.818;2023-03-26T12:16:34;100650.53;;;28.08;43.29
23619;BME280;18207;32.078;34.818;2023-03-26T12:19:18;100641.22;;;28.07;43.28
23619;BME280;18207;32.078;34.818;2023-03-26T12:21:51;100639.97;;;28.05;43.52
23619;BME280;18207;32.078;34.818;2023-03-26T12:24:30;100634.34;;;28.05;43.37
23619;BME280;18207;32.078;34.818;2023-03-26T12:27:22;100639.19;;;28.04;43.16
23619;BME280;18207;32.078;34.818;2023-03-26T12:30:09;100634.72;;;28.03;43.47
23619;BME280;18207;32.078;34.818;2023-03-26T12:32:40;100638.34;;;28.04;43.78
23619;BME280;18207;32.078;34.818;2023-03-26T12:35:16;100636.34;;;28.04;43.44
23619;BME280;18207;32.078;34.818;2023-03-26T12:37:47;100631.91;;;28.03;43.52
23619;BME280;18207;32.078;34.818;2023-03-26T12:40:40;100625.44;;;28.03;43.40
23619;BME280;18207;32.078;34.818;2023-03-26T12:43:24;100638.75;;;28.02;43.50
23619;BME280;18207;32.078;34.818;2023-03-26T12:46:25;100629.84;;;28.00;43.44
23619;BME280;18207;32.078;34.818;2023-03-26T12:49:16;100635.06;;;27.98;43.66
23619;BME280;18207;32.078;34.818;2023-03-26T12:51:51;100630.25;;;27.99;43.26
23619;BME280;18207;32.078;34.818;2023-03-26T12:54:38;100635.91;;;27.99;43.18
23619;BME280;18207;32.078;34.818;2023-03-26T12:57:19;100637.09;;;27.98;43.44
23619;BME280;18207;32.078;34.818;2023-03-26T13:00:22;100637.88;;;27.95;43.29
23619;BME280;18207;32.078;34.818;2023-03-26T13:03:16;100626.53;;;27.91;43.15
23619;BME280;18207;32.078;34.818;2023-03-26T13:06:03;100632.59;;;27.90;43.24
23619;BME280;18207;32.078;34.818;2023-03-26T13:09:08;100626.50;;;27.88;43.33
23619;BME280;18207;32.078;34.818;2023-03-26T13:11:54;100623.22;;;27.82;43.03
23619;BME280;18207;32.078;34.818;2023-03-26T13:14:57;100622.75;;;27.77;43.30
23619;BME280;18207;32.078;34.818;2023-03-26T13:17:38;100617.44;;;27.72;43.19
23619;BME280;18207;32.078;34.818;2023-03-26T13:20:21;100608.97;;;27.72;43.45
23619;BME280;18207;32.078;34.818;2023-03-26T13:23:03;100609.75;;;27.69;42.94
23619;BME280;18207;32.078;34.818;2023-03-26T13:25:43;100610.13;;;27.68;43.03
23619;BME280;18207;32.078;34.818;2023-03-26T13:28:29;100612.16;;;27.67;43.12
23619;BME280;18207;32.078;34.818;2023-03-26T13:31:15;100609.72;;;27.66;43.14
23619;BME280;18207;32.078;34.818;2023-03-26T13:33:59;100614.94;;;27.64;43.24
23619;BME280;18207;32.078;34.818;2023-03-26T13:36:44;100621.78;;;27.63;43.28
23619;BME280;18207;32.078;34.818;2023-03-26T13:39:32;100629.78;;;27.61;43.26
23619;BME280;18207;32.078;34.818;2023-03-26T13:42:27;100631.38;;;27.58;43.01
23619;BME280;18207;32.078;34.818;2023-03-26T13:45:22;100637.78;;;27.55;43.11
23619;BME280;18207;32.078;34.818;2023-03-26T13:47:59;100640.19;;;27.53;43.24
23619;BME280;18207;32.078;34.818;2023-03-26T13:50:36;100645.03;;;27.53;43.36
23619;BME280;18207;32.078;34.818;2023-03-26T13:53:14;100643.78;;;27.50;43.11
23619;BME280;18207;32.078;34.818;2023-03-26T13:55:50;100649.44;;;27.50;43.11
23619;BME280;18207;32.078;34.818;2023-03-26T13:58:27;100643.34;;;27.48;43.09
23619;BME280;18207;32.078;34.818;2023-03-26T14:01:06;100646.94;;;27.45;43.19
23619;BME280;18207;32.078;34.818;2023-03-26T14:03:53;100646.47;;;27.40;43.17
23619;BME280;18207;32.078;34.818;2023-03-26T14:06:38;100645.63;;;27.36;43.01
23619;BME280;18207;32.078;34.818;2023-03-26T14:09:18;100654.03;;;27.32;43.13
23619;BME280;18207;32.078;34.818;2023-03-26T14:12:15;100649.16;;;27.29;43.25
23619;BME280;18207;32.078;34.818;2023-03-26T14:14:53;100645.47;;;27.25;43.11
23619;BME280;18207;32.078;34.818;2023-03-26T14:17:33;100652.69;;;27.23;43.20